createdAt,value
2019-02-07T00:00:01.270Z,9.68
2019-02-07T00:02:50.312Z,9.30
2019-02-07T00:05:38.569Z,11.70
2019-02-07T00:08:26.506Z,9.75
2019-02-07T00:11:15.023Z,11.38
2019-02-07T00:14:03.398Z,12.05
2019-02-07T00:16:51.818Z,11.00
2019-02-07T00:19:40.175Z,13.60
2019-02-07T00:22:29.042Z,12.10
2019-02-07T00:25:17.547Z,12.55
2019-02-07T00:28:05.837Z,12.63
2019-02-07T00:30:53.644Z,11.60
2019-02-07T00:33:41.721Z,9.85
2019-02-07T00:36:30.122Z,10.80
2019-02-07T00:39:18.160Z,9.63
2019-02-07T00:42:06.357Z,10.32
2019-02-07T00:44:54.725Z,9.25
2019-02-07T00:47:50.031Z,10.50
2019-02-07T00:50:38.297Z,9.10
2019-02-07T00:53:30.578Z,11.03
2019-02-07T00:56:18.684Z,10.78
2019-02-07T00:59:07.579Z,11.10
2019-02-07T01:01:56.051Z,8.98
2019-02-07T01:04:44.910Z,10.18
2019-02-07T01:07:33.178Z,10.25
2019-02-07T01:10:23.526Z,10.55
2019-02-07T01:13:11.817Z,10.88
2019-02-07T01:16:00.420Z,10.75
2019-02-07T01:18:48.038Z,11.10
2019-02-07T01:21:37.160Z,12.53
2019-02-07T01:24:25.393Z,9.50
2019-02-07T01:27:13.841Z,11.57
2019-02-07T01:30:02.558Z,10.23
2019-02-07T01:32:51.421Z,10.23
2019-02-07T01:35:39.730Z,11.63
2019-02-07T01:38:28.279Z,11.38
2019-02-07T01:41:17.389Z,12.13
2019-02-07T01:44:05.691Z,9.78
2019-02-07T01:46:54.075Z,9.93
2019-02-07T01:49:42.844Z,10.63
2019-02-07T01:52:30.788Z,10.85
2019-02-07T01:55:19.598Z,12.07
2019-02-07T01:58:07.316Z,10.98
2019-02-07T02:00:56.746Z,10.45
2019-02-07T02:03:44.846Z,10.20
2019-02-07T02:06:34.263Z,11.10
2019-02-07T02:09:22.357Z,11.95
2019-02-07T02:12:10.455Z,10.30
2019-02-07T02:14:58.974Z,10.58
2019-02-07T02:17:46.863Z,10.30
2019-02-07T02:20:35.073Z,10.72
2019-02-07T02:23:23.251Z,11.15
2019-02-07T02:26:12.366Z,8.98
2019-02-07T02:29:00.371Z,10.63
2019-02-07T02:31:48.453Z,9.58
2019-02-07T02:34:36.897Z,9.05
2019-02-07T02:37:24.897Z,11.20
2019-02-07T02:40:13.251Z,10.00
2019-02-07T02:43:01.720Z,11.35
2019-02-07T02:45:49.801Z,10.58
2019-02-07T02:48:38.595Z,12.63
2019-02-07T02:51:26.801Z,10.35
2019-02-07T02:54:33.667Z,9.78
2019-02-07T02:57:21.419Z,11.90
2019-02-07T03:00:17.310Z,11.22
2019-02-07T03:03:24.566Z,10.15
2019-02-07T03:06:22.303Z,10.98
2019-02-07T03:09:29.752Z,11.05
2019-02-07T03:12:34.790Z,11.50
2019-02-07T03:15:57.702Z,12.73
2019-02-07T03:19:03.675Z,10.78
2019-02-07T03:22:19.986Z,10.18
2019-02-07T03:25:32.370Z,11.95
2019-02-07T03:28:20.150Z,11.95
2019-02-07T03:31:35.232Z,11.48
2019-02-07T03:34:34.474Z,13.45
2019-02-07T03:37:47.934Z,10.75
2019-02-07T03:41:08.347Z,9.90
2019-02-07T03:44:07.295Z,10.03
2019-02-07T03:47:13.338Z,10.85
2019-02-07T03:50:36.242Z,12.03
2019-02-07T03:53:42.890Z,11.35
2019-02-07T03:56:41.497Z,11.40
2019-02-07T04:00:03.209Z,10.43
2019-02-07T04:03:10.908Z,10.63
2019-02-07T04:06:21.284Z,8.83
2019-02-07T04:09:24.239Z,8.75
2019-02-07T04:12:30.761Z,9.90
2019-02-07T04:15:43.801Z,9.60
2019-02-07T04:18:59.660Z,11.20
2019-02-07T04:22:04.956Z,12.15
2019-02-07T04:25:11.375Z,13.75
2019-02-07T04:28:18.798Z,11.03
2019-02-07T04:31:26.014Z,10.40
2019-02-07T04:34:39.712Z,9.43
2019-02-07T04:37:45.448Z,9.53
2019-02-07T04:40:50.761Z,8.98
2019-02-07T04:44:07.221Z,11.28
2019-02-07T04:47:12.936Z,9.63
2019-02-07T04:50:18.934Z,10.45
2019-02-07T04:53:44.694Z,11.10
2019-02-07T04:56:49.665Z,10.50
2019-02-07T04:59:57.419Z,10.58
2019-02-07T05:03:11.610Z,12.33
2019-02-07T05:06:11.354Z,10.98
2019-02-07T05:09:12.173Z,11.30
2019-02-07T05:12:11.624Z,11.93
2019-02-07T05:15:13.279Z,11.60
2019-02-07T05:18:11.890Z,12.68
2019-02-07T05:21:34.562Z,11.75
2019-02-07T05:24:48.898Z,11.68
2019-02-07T05:27:56.706Z,11.95
2019-02-07T05:31:18.081Z,13.58
2019-02-07T05:34:43.958Z,13.50
2019-02-07T05:37:51.429Z,13.20
2019-02-07T05:40:57.367Z,10.88
2019-02-07T05:44:08.478Z,13.83
2019-02-07T05:47:14.681Z,13.58
2019-02-07T05:50:31.941Z,15.75
2019-02-07T05:53:38.351Z,12.53
2019-02-07T05:56:44.380Z,15.00
2019-02-07T06:00:07.409Z,15.60
2019-02-07T06:03:20.278Z,15.35
2019-02-07T06:06:33.561Z,14.63
2019-02-07T06:09:41.376Z,12.40
2019-02-07T06:12:41.097Z,13.78
2019-02-07T06:15:50.806Z,12.50
2019-02-07T06:18:57.755Z,14.55
2019-02-07T06:22:03.268Z,12.23
2019-02-07T06:25:10.132Z,13.90
2019-02-07T06:28:15.665Z,12.78
2019-02-07T06:31:25.802Z,13.40
2019-02-07T06:34:32.038Z,12.25
2019-02-07T06:37:44.898Z,13.95
2019-02-07T06:40:58.151Z,12.88
2019-02-07T06:44:15.151Z,13.75
2019-02-07T06:47:13.988Z,14.00
2019-02-07T06:50:18.931Z,12.35
2019-02-07T06:53:38.582Z,12.95
2019-02-07T06:56:43.689Z,15.18
2019-02-07T06:59:57.434Z,13.20
2019-02-07T07:03:05.922Z,13.30
2019-02-07T07:06:11.244Z,11.22
2019-02-07T07:09:22.897Z,12.33
2019-02-07T07:12:36.290Z,12.75
2019-02-07T07:15:55.377Z,15.60
2019-02-07T07:18:58.623Z,12.73
2019-02-07T07:22:04.763Z,15.95
2019-02-07T07:25:11.310Z,15.00
2019-02-07T07:28:28.268Z,13.83
2019-02-07T07:31:44.413Z,13.45
2019-02-07T07:34:55.632Z,14.90
2019-02-07T07:38:14.881Z,12.90
2019-02-07T07:41:28.597Z,12.73
2019-02-07T07:44:39.271Z,15.00
2019-02-07T07:48:03.977Z,14.18
2019-02-07T07:51:18.276Z,14.68
2019-02-07T07:54:32.384Z,13.38
2019-02-07T07:57:29.221Z,14.58
2019-02-07T08:00:35.254Z,14.33
2019-02-07T08:03:41.737Z,14.87
2019-02-07T08:06:46.858Z,14.30
2019-02-07T08:09:45.272Z,15.18
2019-02-07T08:12:47.918Z,12.35
2019-02-07T08:15:56.783Z,15.55
2019-02-07T08:19:02.606Z,13.40
2019-02-07T08:22:06.389Z,12.70
2019-02-07T08:25:19.694Z,15.32
2019-02-07T08:28:30.520Z,14.93
2019-02-07T08:31:33.785Z,15.65
2019-02-07T08:34:39.623Z,13.65
2019-02-07T08:37:59.126Z,13.53
2019-02-07T08:41:09.453Z,15.78
2019-02-07T08:44:18.431Z,15.88
2019-02-07T08:47:32.334Z,14.75
2019-02-07T08:50:42.955Z,12.90
2019-02-07T08:54:06.210Z,13.22
2019-02-07T08:57:07.638Z,12.68
2019-02-07T09:00:18.362Z,14.35
2019-02-07T09:03:13.531Z,12.07
2019-02-07T09:06:19.738Z,13.53
2019-02-07T09:09:31.373Z,12.28
2019-02-07T09:12:41.689Z,13.72
2019-02-07T09:15:45.260Z,14.40
2019-02-07T09:18:55.795Z,12.63
2019-02-07T09:22:02.154Z,13.53
2019-02-07T09:25:18.671Z,15.28
2019-02-07T09:28:35.360Z,13.62
2019-02-07T09:31:56.871Z,13.22
2019-02-07T09:34:53.630Z,13.90
2019-02-07T09:38:07.022Z,14.78
2019-02-07T09:41:21.526Z,12.60
2019-02-07T09:44:39.681Z,13.53
2019-02-07T09:48:01.853Z,16.45
2019-02-07T09:51:10.154Z,13.00
2019-02-07T09:54:10.593Z,13.80
2019-02-07T09:57:27.294Z,12.35
2019-02-07T10:00:39.931Z,12.93
2019-02-07T10:03:42.006Z,14.50
2019-02-07T10:06:44.462Z,12.82
2019-02-07T10:09:54.796Z,13.50
2019-02-07T10:13:14.538Z,14.07
2019-02-07T10:16:20.223Z,14.20
2019-02-07T10:19:34.983Z,13.88
2019-02-07T10:22:42.439Z,12.47
2019-02-07T10:25:51.287Z,12.50
2019-02-07T10:28:56.026Z,13.53
2019-02-07T10:32:07.209Z,14.03
2019-02-07T10:35:22.603Z,13.55
2019-02-07T10:38:22.778Z,14.30
2019-02-07T10:41:21.283Z,14.40
2019-02-07T10:44:30.263Z,13.00
2019-02-07T10:47:50.579Z,14.85
2019-02-07T10:50:58.171Z,14.65
2019-02-07T10:53:57.200Z,14.00
2019-02-07T10:57:05.309Z,13.10
2019-02-07T11:00:11.651Z,13.80
2019-02-07T11:06:09.732Z,15.48
2019-02-07T11:09:24.779Z,13.03
2019-02-07T11:12:26.107Z,16.48
2019-02-07T11:15:36.998Z,15.58
2019-02-07T11:18:43.273Z,12.70
2019-02-07T11:22:00.109Z,13.28
2019-02-07T11:25:06.257Z,14.68
2019-02-07T11:28:10.537Z,14.70
2019-02-07T11:31:13.143Z,14.15
2019-02-07T11:34:17.118Z,14.85
2019-02-07T11:37:23.941Z,13.93
2019-02-07T11:40:34.657Z,13.43
2019-02-07T11:43:40.326Z,13.90
2019-02-07T11:46:42.350Z,15.70
2019-02-07T11:49:57.118Z,17.00
2019-02-07T11:53:03.403Z,14.60
2019-02-07T11:56:09.672Z,14.53
2019-02-07T11:59:25.078Z,14.00
2019-02-07T12:02:24.530Z,14.73
2019-02-07T12:05:31.492Z,14.90
2019-02-07T12:08:42.118Z,13.50
2019-02-07T12:11:52.810Z,15.47
2019-02-07T12:14:55.005Z,14.70
2019-02-07T12:18:03.299Z,14.07
2019-02-07T12:21:09.231Z,13.57
2019-02-07T12:24:26.364Z,15.30
2019-02-07T12:27:31.774Z,15.27
2019-02-07T12:30:46.319Z,14.70
2019-02-07T12:33:56.197Z,14.20
2019-02-07T12:37:09.255Z,17.67
2019-02-07T12:40:19.935Z,15.00
2019-02-07T12:43:34.091Z,14.70
2019-02-07T12:46:52.996Z,16.97
2019-02-07T12:50:04.674Z,15.70
2019-02-07T12:53:15.183Z,17.07
2019-02-07T12:56:32.637Z,17.90
2019-02-07T12:59:40.827Z,13.80
2019-02-07T13:02:42.263Z,16.12
2019-02-07T13:05:29.598Z,17.45
2019-02-07T13:08:40.997Z,16.42
2019-02-07T13:11:47.978Z,17.73
2019-02-07T13:14:56.166Z,17.45
2019-02-07T13:18:03.491Z,27.75
2019-02-07T13:21:16.527Z,15.73
2019-02-07T13:24:24.323Z,16.87
2019-02-07T13:27:30.541Z,17.50
2019-02-07T13:30:44.860Z,16.23
2019-02-07T13:33:53.677Z,17.77
2019-02-07T13:37:00.811Z,18.77
2019-02-07T13:40:23.723Z,18.83
2019-02-07T13:43:31.837Z,19.00
2019-02-07T13:46:28.802Z,18.77
2019-02-07T13:49:51.922Z,16.07
2019-02-07T13:52:52.119Z,18.47
2019-02-07T13:56:00.458Z,16.67
2019-02-07T13:59:02.346Z,17.77
2019-02-07T14:02:12.223Z,17.97
2019-02-07T14:05:19.100Z,16.23
2019-02-07T14:08:18.786Z,19.33
2019-02-07T14:11:32.657Z,17.42
2019-02-07T14:14:40.368Z,18.35
2019-02-07T14:17:47.883Z,21.02
2019-02-07T14:21:01.456Z,20.20
2019-02-07T14:24:08.975Z,18.03
2019-02-07T14:27:29.063Z,19.13
2019-02-07T14:30:46.694Z,20.10
2019-02-07T14:33:44.769Z,19.97
2019-02-07T14:37:06.022Z,20.30
2019-02-07T14:40:20.692Z,18.90
2019-02-07T14:43:28.796Z,20.27
2019-02-07T14:46:36.058Z,16.97
2019-02-07T14:49:25.745Z,16.87
2019-02-07T14:52:15.672Z,17.10
2019-02-07T14:55:05.332Z,21.00
2019-02-07T14:57:53.409Z,20.13
2019-02-07T15:03:29.583Z,18.57
2019-02-07T15:06:18.299Z,20.50
2019-02-07T15:09:14.543Z,20.93
2019-02-07T15:12:03.131Z,20.03
2019-02-07T15:14:51.055Z,16.90
2019-02-07T15:17:39.755Z,19.90
2019-02-07T15:20:28.993Z,18.70
2019-02-07T15:23:18.991Z,18.33
2019-02-07T15:26:07.917Z,19.30
2019-02-07T15:28:57.503Z,20.23
2019-02-07T15:31:47.447Z,16.97
2019-02-07T15:34:35.911Z,19.80
2019-02-07T15:37:26.079Z,17.10
2019-02-07T15:40:17.244Z,19.50
2019-02-07T15:43:05.854Z,21.10
2019-02-07T15:45:55.137Z,19.33
2019-02-07T15:48:44.462Z,17.57
2019-02-07T15:51:34.334Z,20.50
2019-02-07T15:54:25.403Z,19.03
2019-02-07T15:57:14.350Z,17.30
2019-02-07T16:00:10.750Z,21.47
2019-02-07T16:05:53.615Z,22.10
2019-02-07T16:08:43.158Z,18.80
2019-02-07T16:11:32.940Z,19.60
2019-02-07T16:14:22.144Z,19.30
2019-02-07T16:17:11.001Z,17.73
2019-02-07T16:20:00.315Z,19.07
2019-02-07T16:22:48.531Z,18.20
2019-02-07T16:25:37.090Z,20.00
2019-02-07T16:28:24.710Z,18.50
2019-02-07T16:31:14.116Z,18.50
2019-02-07T16:34:05.102Z,19.17
2019-02-07T16:36:55.979Z,21.27
2019-02-07T16:39:44.707Z,18.53
2019-02-07T16:42:33.316Z,19.60
2019-02-07T16:45:24.148Z,21.80
2019-02-07T16:48:14.845Z,17.77
2019-02-07T16:51:04.517Z,17.73
2019-02-07T16:53:53.967Z,17.43
2019-02-07T16:56:43.185Z,18.30
2019-02-07T16:59:31.642Z,20.17
2019-02-07T17:02:20.500Z,24.10
2019-02-07T17:05:11.462Z,21.23
2019-02-07T17:08:00.346Z,22.40
2019-02-07T17:10:51.421Z,19.00
2019-02-07T17:13:41.371Z,20.27
2019-02-07T17:16:29.556Z,20.77
2019-02-07T17:19:18.211Z,20.10
2019-02-07T17:22:06.397Z,19.57
2019-02-07T17:24:55.576Z,21.97
2019-02-07T17:27:44.994Z,17.50
2019-02-07T17:30:33.130Z,19.03
2019-02-07T17:33:22.707Z,20.97
2019-02-07T17:36:13.035Z,20.07
2019-02-07T17:39:02.664Z,20.37
2019-02-07T17:41:52.039Z,20.20
2019-02-07T17:44:41.591Z,19.00
2019-02-07T17:47:36.389Z,19.67
2019-02-07T17:53:23.653Z,18.33
2019-02-07T17:56:14.587Z,20.00
2019-02-07T17:59:06.303Z,18.47
2019-02-07T18:01:56.536Z,18.00
2019-02-07T18:04:45.095Z,21.57
2019-02-07T18:07:34.351Z,18.10
2019-02-07T18:10:21.043Z,17.87
2019-02-07T18:13:12.051Z,17.10
2019-02-07T18:16:00.215Z,18.07
2019-02-07T18:18:49.094Z,18.87
2019-02-07T18:21:37.727Z,17.23
2019-02-07T18:24:27.921Z,16.83
2019-02-07T18:27:17.869Z,18.40
2019-02-07T18:30:09.941Z,17.90
2019-02-07T18:33:00.355Z,16.57
2019-02-07T18:35:51.793Z,22.03
2019-02-07T18:38:40.411Z,20.30
2019-02-07T18:41:29.397Z,19.00
2019-02-07T18:44:16.137Z,19.10
2019-02-07T18:47:11.699Z,20.50
2019-02-07T18:50:00.989Z,20.43
2019-02-07T18:52:50.488Z,20.40
2019-02-07T18:55:39.490Z,18.63
2019-02-07T18:58:29.433Z,19.87
2019-02-07T19:01:19.451Z,20.87
2019-02-07T19:04:10.414Z,18.10
2019-02-07T19:06:59.396Z,19.57
2019-02-07T19:09:50.447Z,18.77
2019-02-07T19:12:40.858Z,18.97
2019-02-07T19:15:37.064Z,18.73
2019-02-07T19:18:27.563Z,17.87
2019-02-07T19:21:16.410Z,18.50
2019-02-07T19:24:06.314Z,20.00
2019-02-07T19:26:56.495Z,18.20
2019-02-07T19:29:45.219Z,19.60
2019-02-07T19:32:35.038Z,20.37
2019-02-07T19:35:29.083Z,18.50
2019-02-07T19:38:20.622Z,19.53
2019-02-07T19:41:10.380Z,20.23
2019-02-07T19:44:00.729Z,19.90
2019-02-07T19:46:51.632Z,17.27
2019-02-07T19:49:44.858Z,16.87
2019-02-07T19:52:34.183Z,19.67
2019-02-07T19:55:25.099Z,18.73
2019-02-07T19:58:13.328Z,15.67
2019-02-07T20:01:01.913Z,19.90
2019-02-07T20:03:51.559Z,17.70
2019-02-07T20:06:41.709Z,17.37
2019-02-07T20:09:32.645Z,17.50
2019-02-07T20:12:22.428Z,18.90
2019-02-07T20:15:16.036Z,18.60
2019-02-07T20:18:09.827Z,18.23
2019-02-07T20:20:58.570Z,17.67
2019-02-07T20:23:47.892Z,18.67
2019-02-07T20:26:37.167Z,17.93
2019-02-07T20:29:26.713Z,18.40
2019-02-07T20:32:16.017Z,16.23
2019-02-07T20:35:06.984Z,17.03
2019-02-07T20:37:57.112Z,18.47
2019-02-07T20:40:47.038Z,18.73
2019-02-07T20:43:37.757Z,17.57
2019-02-07T20:46:26.906Z,17.40
2019-02-07T20:49:17.858Z,18.17
2019-02-07T20:52:12.349Z,20.10
2019-02-07T20:55:01.947Z,14.70
2019-02-07T20:57:51.563Z,18.10
2019-02-07T21:00:41.410Z,19.37
2019-02-07T21:03:33.115Z,18.77
2019-02-07T21:06:24.305Z,17.90
2019-02-07T21:09:13.873Z,17.57
2019-02-07T21:12:05.093Z,19.30
2019-02-07T21:14:54.847Z,17.43
2019-02-07T21:17:43.911Z,17.03
2019-02-07T21:20:33.614Z,16.63
2019-02-07T21:23:22.502Z,17.07
2019-02-07T21:26:11.882Z,17.17
2019-02-07T21:29:01.488Z,17.30
2019-02-07T21:31:50.740Z,19.87
2019-02-07T21:34:41.180Z,17.93
2019-02-07T21:37:31.840Z,18.23
2019-02-07T21:40:23.349Z,17.00
2019-02-07T21:43:13.029Z,18.37
2019-02-07T21:46:02.928Z,18.23
2019-02-07T21:48:52.161Z,16.57
2019-02-07T21:51:42.218Z,19.63
2019-02-07T21:54:31.141Z,21.27
2019-02-07T21:57:20.270Z,18.03
2019-02-07T22:00:19.710Z,17.83
2019-02-07T22:03:12.129Z,17.63
2019-02-07T22:06:01.679Z,19.03
2019-02-07T22:08:50.381Z,18.57
2019-02-07T22:11:39.256Z,17.40
2019-02-07T22:14:28.117Z,17.07
2019-02-07T22:17:17.093Z,17.87
2019-02-07T22:20:08.293Z,17.27
2019-02-07T22:22:56.678Z,16.07
2019-02-07T22:25:45.239Z,17.90
2019-02-07T22:28:34.054Z,19.07
2019-02-07T22:31:22.222Z,16.90
2019-02-07T22:34:11.153Z,19.23
2019-02-07T22:36:59.375Z,20.53
2019-02-07T22:39:47.795Z,17.80
2019-02-07T22:42:36.286Z,20.87
2019-02-07T22:45:24.592Z,16.33
2019-02-07T22:48:13.342Z,19.40
2019-02-07T22:51:01.902Z,20.40
2019-02-07T22:53:51.186Z,17.23
2019-02-07T22:56:45.389Z,19.03
2019-02-07T22:59:28.622Z,17.67
2019-02-07T23:02:16.862Z,16.50
2019-02-07T23:05:05.813Z,15.60
2019-02-07T23:07:54.274Z,17.57
2019-02-07T23:10:42.702Z,16.87
2019-02-07T23:13:30.985Z,16.40
2019-02-07T23:16:19.948Z,16.57
2019-02-07T23:19:08.648Z,15.20
2019-02-07T23:21:56.942Z,18.00
2019-02-07T23:24:45.502Z,16.73
2019-02-07T23:27:33.499Z,16.57
2019-02-07T23:30:22.435Z,17.70
2019-02-07T23:33:10.526Z,16.37
2019-02-07T23:35:58.704Z,17.40
2019-02-07T23:38:46.682Z,18.90
2019-02-07T23:41:34.853Z,17.00
2019-02-07T23:44:23.565Z,16.47
2019-02-07T23:47:16.684Z,16.50
2019-02-07T23:50:05.374Z,17.43
2019-02-07T23:52:54.268Z,14.30
2019-02-07T23:55:43.130Z,15.80
2019-02-07T23:58:31.354Z,15.30
